Tiempo atmosférico en la estación meteorológica de Menorca Aeropuerto, Illes Balears (91 m.)



Fecha
DESCASC
Temp. máxima en grados centígrados (hora)
DESCASC
Temp. mínima en grados centígrados (hora)
DESCASC
Temp. media en grados centígrados
DESCASC
Racha de viento máxima en m/sg (hora)
DESCASC
Velocidad máxima media en intervalos de 10 minutos(hora)
DESCASC
Precipitaciones diarias en mm
DESCASC
Precipitaciones de 00:00 a 06:00 en mm
DESCASC
Precipitaciones de 06:00 a 12:00 en mm
DESCASC
Precipitaciones de 12:00 a 18:00 en mm
DESCASC
Precipitaciones de 18:00 a 24:00 en mm
DESCASC

Gráficas

Temp. máximas Temp. mínimas Temp. medias Precipitaciones Rachas de viento máximas Velocidades máximas media en intervalos de 10 minutos

Datos horarios

Fecha y hora oficial Temperatura (ºC) Velocidad del viento (km/h) Dirección del viento Racha (km/h) Dirección de racha Precipitación (mm) Presión (hPa) Tendencia (hPa) Humedad (%)
2019-08-19 23:00:00 24.6 9 Este 22 Este 0 1006.6 0.8 90
2019-08-19 22:00:00 24.9 11 Este 26 Este 0 1006.3 0.7 88
2019-08-19 21:00:00 25.5 8 Este 26 Sudeste 0 1006 0.2 84
2019-08-19 20:00:00 26.7 13 Sudeste 21 Sur 0 1005.8 0 78
2019-08-19 19:00:00 27.8 15 Sudeste 33 Sudeste 0 1005.6 -0.5 72
2019-08-19 18:00:00 28.4 19 Sudeste 32 Sur 0 1005.8 -0.5 69
2019-08-19 17:00:00 28.5 22 Sur 33 Sur 0 1005.8 -0.3 68
2019-08-19 16:00:00 29.4 21 Sudeste 33 Sur 0 1006.1 0 63
2019-08-19 15:00:00 30.1 21 Sur 35 Sudeste 0 1006.3 0.1 56
2019-08-19 14:00:00 30 22 Sudeste 37 Sudeste 0 1006.1 0.5 60
2019-08-19 13:00:00 29.6 19 Sudeste 37 Este 0 1006.1 1 62
2019-08-19 12:00:00 29.5 18 Este 30 Este 0 1006.2 1.4 64
2019-08-19 11:00:00 29.1 16 Este 32 Este 0 1005.6 1.1 67
2019-08-19 10:00:00 27.9 14 Este 28 Este 0 1005.1 1.1 74
2019-08-19 09:00:00 26 14 Este 26 Este 0 1004.8 0.9 85
2019-08-19 08:00:00 24.2 12 Nordeste 28 Nordeste 0 1004.5 0.9 94
2019-08-19 07:00:00 22.9 12 Nordeste 13 Nordeste 0 1004 0.2 94
2019-08-19 06:00:00 22.4 11 Norte 13 Norte 0 1003.9 0 93
2019-08-19 05:00:00 23.7 5 Sudeste 11 Sur 0 1003.6 -0.6 93
2019-08-19 04:00:00 23.9 10 Sur 15 Sur 0 1003.8 -0.5 92
2019-08-19 03:00:00 24.1 12 Sur 17 Sur 0 1003.9 0 92
2019-08-19 02:00:00 24.3 12 Sur 17 Sur 0 1004.2 0.6 90
2019-08-19 01:00:00 24.3 13 Sur 28 Este 0 1004.3 1.1 90
2019-08-19 00:00:00 24.5 10 Sudeste 15 Sudeste 0 1003.9 1.2 87
2019-08-18 23:00:00 24.8 10 Sudeste 32 Sudeste 0 1003.6 0.7 87
2019-08-18 22:00:00 25 12 Sudeste 32 Este 0 1003.2 0.5 83
2019-08-18 21:00:00 25.6 14 Sudeste 24 Sudeste 0 1002.7 -0.3 81
2019-08-18 20:00:00 27.1 18 Sudeste 30 Sur 0 1002.9 -0.3 73
2019-08-18 19:00:00 27.8 20 Sudeste 37 Sur 0 1002.7 -1 70
2019-08-18 18:00:00 29 21 Sudeste 32 Sudeste 0 1003 -1 65
2019-08-18 17:00:00 29.7 22 Sudeste 45 Sudeste 0 1003.2 -0.9 60
2019-08-18 16:00:00 30 20 Sudeste 30 Sudeste 0 1003.7 -0.6 53
2019-08-18 15:00:00 30.7 20 Sudeste 33 Sudeste 0 1004 -0.2 47
2019-08-18 14:00:00 30.2 20 Sudeste 39 Norte 0 1004.1 0.1 51
2019-08-18 13:00:00 30.3 17 Sudeste 42 Este 0 1004.3 0.5 51
2019-08-18 12:00:00 29.3 17 Este 37 Norte 0 1004.2 0.5 60
2019-08-18 11:00:00 28.3 19 Este 42 Norte 0 1004 0.3 64
2019-08-18 10:00:00 27.6 18 Este 37 Este 0 1003.8 -0.2 70
2019-08-18 09:00:00 26.2 15 Este 39 Este 0 1003.7 -0.4 77
2019-08-18 08:00:00 24.6 8 Este 21 Este 0 1003.7 -0.6 85
2019-08-18 07:00:00 23.6 9 Sudeste 18 Sudeste 0 1004 -0.7 86
2019-08-18 06:00:00 23.8 13 Sur 18 Sur 0 1004.1 -0.7 87
2019-08-18 05:00:00 23.9 10 Sur 18 Sur 0 1004.3 -0.7 87
2019-08-18 04:00:00 24 11 Sudeste 21 Sudeste 0 1004.7 -0.4 88
2019-08-18 03:00:00 23.7 11 Sudeste 17 Sudeste 0 1004.8 -0.4 89
2019-08-18 02:00:00 23.4 9 Sudeste 17 Sudeste 0 1005 -0.4 88
2019-08-18 01:00:00 23.8 13 Sudeste 37 Sur 0 1005.1 -0.4 88
2019-08-18 00:00:00 23.9 10 Sudeste 32 Sudeste 0 1005.2 -0.2 86
2019-08-17 23:00:00 24.2 11 Sudeste 33 Este 0 1005.4 0.1 87
2019-08-17 22:00:00 24.5 12 Sudeste 35 Sur 0 1005.5 0 86
2019-08-17 21:00:00 25 14 Sudeste 39 Sudeste 0 1005.4 -0.7 83
2019-08-17 20:00:00 25.9 19 Sudeste 41 Sudeste 0 1005.3 -1 76
2019-08-17 19:00:00 27 20 Sur 30 Sudeste 0 1005.5 -1.1 72
2019-08-17 18:00:00 27.9 21 Sur 30 Sur 0 1006.1 -0.8 67
2019-08-17 17:00:00 28.6 21 Sur 30 Sur 0 1006.3 -0.8 63
2019-08-17 16:00:00 29.3 21 Sur 37 Sudeste 0 1006.6 -0.8 58
2019-08-17 15:00:00 29.7 19 Sur 39 Sudeste 0 1006.9 -0.8 51
2019-08-17 14:00:00 29.5 19 Sur 30 Sudeste 0 1007.1 -0.6 51
2019-08-17 13:00:00 29.6 17 Sur 32 Sudeste 0 1007.4 -0.1 53
2019-08-17 12:00:00 28.9 15 Sur 33 Este 0 1007.7 0.4 55
2019-08-17 11:00:00 28.2 14 Sur 32 Sur 0 1007.7 0.8 59
2019-08-17 10:00:00 27.1 10 Sur 22 Sur 0 1007.5 0.7 67
2019-08-17 09:00:00 26.2 10 Sur 18 Sur 0 1007.3 0.6 72
2019-08-17 08:00:00 23.9 12 Sur 17 Sur 0 1006.9 -0.1 82
2019-08-17 07:00:00 22.1 8 Sur 13 Sur 0 1006.8 -0.3 87
2019-08-17 06:00:00 22.1 11 Sur 13 Sur 0 1006.7 -0.5 87
2019-08-17 05:00:00 21.9 9 Sur 11 Sur 0 1007 -0.6 87
2019-08-17 04:00:00 22.3 10 Sur 13 Sur 0 1007.1 -0.5 85
2019-08-17 03:00:00 22.5 8 Sur 11 Sur 0 1007.2 -0.5 82
2019-08-17 02:00:00 22.2 5 Sur 11 Sur 0 1007.6 0 83
2019-08-17 01:00:00 22.9 6 Sur 13 Este 0 1007.6 0.1 80
2019-08-17 00:00:00 23.3 6 Sudeste 15 Sur 0 1007.7 0.8 80
2019-08-16 23:00:00 23.5 10 Sur 15 Sur 0 1007.6 0.9 79
2019-08-16 22:00:00 24 9 Sur 13 Sur 0 1007.5 0.8 76
2019-08-16 21:00:00 24.8 8 Sudoeste 17 Sudoeste 0 1006.9 0.1 72
2019-08-16 20:00:00 26.1 13 Sudoeste 24 Sur 0 1006.7 -0.6 67
2019-08-16 19:00:00 27 15 Sudoeste 26 Sudoeste 0 1006.7 -1.1 62
2019-08-16 18:00:00 27.6 16 Sur 26 Sur 0 1006.8 -1.6 58
2019-08-16 17:00:00 27.6 17 Sudoeste 28 Sudoeste 0 1007.3 -1.6 57
2019-08-16 16:00:00 27.7 17 Sudoeste 26 Sur 0 1007.8 -1.4 56
2019-08-16 15:00:00 27.8 16 Sudoeste 30 Sur 0 1008.4 -1.1 55
2019-08-16 14:00:00 27.7 15 Sudoeste 30 Sur 0 1008.9 -0.8 53
2019-08-16 13:00:00 27.8 15 Sur 32 Sur 0 1009.2 -0.3 52
2019-08-16 12:00:00 28.3 7 Norte 22 Nordeste 0 1009.5 0 48
2019-08-16 11:00:00 26.8 11 Este 26 Este 0 1009.7 0.5 53
2019-08-16 10:00:00 26.1 14 Nordeste 28 Nordeste 0 1009.5 0.7 57
2019-08-16 09:00:00 24.2 17 Nordeste 24 Nordeste 0 1009.5 1 64
2019-08-16 08:00:00 23 13 Norte 17 Norte 0 1009.2 0.4 72
2019-08-16 07:00:00 20.4 11 Norte 17 Norte 0 1008.8 -0.1 81
2019-08-16 06:00:00 21.2 13 Norte 17 Norte 0 1008.5 -0.5 79
2019-08-16 05:00:00 20.7 12 Norte 15 Norte 0 1008.8 -0.7 80
2019-08-16 04:00:00 21.1 14 Norte 17 Norte 0 1008.9 -1 79
2019-08-16 03:00:00 21.8 9 Nordeste 13 Nordeste 0 1009 -1 73
2019-08-16 02:00:00 22.8 11 Nordeste 15 Nordeste 0 1009.5 -0.3 73
2019-08-16 01:00:00 22.8 11 Nordeste 21 Este 0 1009.9 0.4 76
2019-08-16 00:00:00 23.2 14 Nordeste 22 Nordeste 0 1010 1.1 75
2019-08-15 23:00:00 23.3 14 Nordeste 24 Nordeste 0 1009.8 1.2 76
2019-08-15 22:00:00 23.5 13 Este 26 Nordeste 0 1009.5 0.9 76
2019-08-15 21:00:00 23.8 12 Nordeste 24 Este 0 1008.9 0.3 73
2019-08-15 20:00:00 25.5 15 Este 22 Nordeste 0 1008.6 -0.1 66
2019-08-15 19:00:00 26.7 15 Este 26 Este 0 1008.6 -0.2 60
2019-08-15 18:00:00 27.4 14 Nordeste 39 Este 0 1008.6 -0.4 53
2019-08-15 17:00:00 29.2 13 Sudeste 30 Sur 0 1008.7 -0.3 42
2019-08-15 16:00:00 29.4 16 Sur 26 Sur 0 1008.8 -0.4 37
2019-08-15 15:00:00 29.9 14 Sudeste 26 Norte 0 1009 -0.5 36
2019-08-15 14:00:00 29.5 16 Este 28 Este 0 1009 -- 38
2019-08-15 13:00:00 29.4 16 Nordeste 33 Este 0 1009.2 -0.4 44
2019-08-15 12:00:00 29.2 15 Nordeste 26 Este 0 1009.5 0.2 43
2019-08-15 11:00:00 28.6 15 Nordeste 24 Este 0 -- -- 46
2019-08-15 10:00:00 26.7 9 Norte 22 Nordeste 0 1009.6 1 63
2019-08-15 09:00:00 24.9 10 Norte 18 Norte 0 1009.3 1.1 77
2019-08-15 08:00:00 22.5 8 Norte 13 Norte 0 1009.1 1 89
2019-08-15 07:00:00 20.1 8 Noroeste -- -- 0 1008.6 0.1 93
2019-08-15 06:00:00 20.5 7 Noroeste 13 Noroeste 0 1008.2 -0.4 91
2019-08-15 05:00:00 -- -- -- -- -- 0 1008.1 -0.8 --
2019-08-15 04:00:00 20.9 10 Norte 11 Norte 0 1008.5 -0.4 88
2019-08-15 03:00:00 -- 9 Norte 11 Norte 0 1008.6 -0.1 --
2019-08-15 02:00:00 20.9 9 Norte 13 Norte 0 1008.9 0.3 82
2019-08-15 01:00:00 21.3 11 Norte 13 Norte 0 1008.9 0.4 81
2019-08-15 00:00:00 -- 9 Norte 11 Norte 0 1008.7 0.6 --
2019-08-14 23:00:00 21.8 -- -- -- -- 0 1008.6 1 81
2019-08-14 22:00:00 23.4 0 Calma 11 Oeste 0 1008.5 0.7 78
2019-08-14 21:00:00 24.6 10 Oeste 26 Sudoeste 0 1008.1 0.2 75
2019-08-14 20:00:00 25.5 18 Sudoeste 30 Sudoeste 0 1007.6 -0.5 69
2019-08-14 19:00:00 26.7 23 Sudoeste 35 Oeste 0 1007.8 -0.4 63
2019-08-14 18:00:00 27.3 21 Oeste 33 Oeste 0 1007.9 -0.7 61
2019-08-14 17:00:00 27.8 23 Oeste 39 Oeste 0 1008.1 -0.6 59
2019-08-14 16:00:00 27.5 23 Sudoeste 37 Sudoeste 0 1008.2 -0.6 57
2019-08-14 15:00:00 27.6 23 Sudoeste 41 Oeste 0 1008.6 -0.5 57
2019-08-14 14:00:00 27.1 28 Sudoeste 41 Oeste 0 1008.7 -0.7 58
2019-08-14 13:00:00 26.7 27 Oeste 37 Oeste 0 1008.8 -0.6 59
2019-08-14 12:00:00 26.4 19 Sudoeste 30 Sudoeste 0 1009.1 -0.1 59
2019-08-14 11:00:00 25.4 13 Oeste 26 Sudoeste 0 1009.4 0.2 62
2019-08-14 10:00:00 25.2 13 Oeste 21 Sudoeste 0 1009.4 0.4 58
2019-08-14 09:00:00 24.1 6 Noroeste 13 Norte 0 1009.2 0.3 59
2019-08-14 08:00:00 20.6 5 Noroeste 11 Oeste 0 1009.2 -- 72
2019-08-14 07:00:00 18.8 9 Noroeste 13 Norte 0 1009 0 74
2019-08-14 06:00:00 18.9 11 Norte 13 Norte 0 1008.9 -0.3 73
2019-08-14 05:00:00 -- -- -- -- -- -- -- -- --
2019-08-14 04:00:00 18.5 8 Noroeste 11 Noroeste 0 1009 -0.1 74
2019-08-14 03:00:00 18.8 10 Noroeste 13 Noroeste 0 1009.2 0.3 75
2019-08-14 02:00:00 18.7 9 Noroeste 11 Noroeste 0 1009.2 0.5 77
2019-08-14 01:00:00 19.3 7 Norte -- -- 0 1009.1 0.6 76
2019-08-14 00:00:00 19.4 10 Norte 17 Norte 0 1008.9 0.9 74
2019-08-13 23:00:00 20.6 12 Norte 18 Norte 0 1008.7 1.1 71
2019-08-13 22:00:00 20.9 13 Norte 15 Norte 0 1008.5 1.1 70
2019-08-13 21:00:00 22 10 Norte 24 Norte 0 1008 0.6 66
2019-08-13 20:00:00 23.6 18 Norte 30 Norte 0 1007.6 0.3 59
2019-08-13 19:00:00 24.5 20 Norte 39 Norte 0 1007.4 -0.2 54
2019-08-13 18:00:00 25.3 26 Norte 45 Nordeste 0 1007.4 -0.5 50
2019-08-13 17:00:00 25.8 30 Nordeste 45 Norte 0 1007.3 -0.9 48
2019-08-13 16:00:00 26 31 Nordeste 46 Norte 0 1007.6 -0.8 47
2019-08-13 15:00:00 25 35 Norte 50 Nordeste 0 1007.9 -0.6 48
2019-08-13 14:00:00 25 37 Norte 50 Norte 0 1008.2 -0.5 47
2019-08-13 13:00:00 26.4 40 Norte 58 Nordeste 0 1008.4 0 42
2019-08-13 12:00:00 25.5 41 Norte 54 Norte 0 1008.5 0.5 45
2019-08-13 11:00:00 24.6 37 Nordeste 58 Norte 0 1008.7 1.2 50
2019-08-13 10:00:00 23.9 41 Norte 55 Norte 0 1008.4 1 52
2019-08-13 09:00:00 23.2 42 Norte 59 Norte 0 1008 0.8 55
2019-08-13 08:00:00 22.9 36 Norte 52 Norte 0 1007.5 0.4 58
2019-08-13 07:00:00 21.7 34 Norte 48 Norte 0 1007.4 0.2 67
2019-08-13 06:00:00 21.8 39 Norte 52 Norte 0 1007.2 0 66
2019-08-13 05:00:00 21.9 33 Norte 52 Norte 0 1007.1 -0.7 68
2019-08-13 04:00:00 22.5 39 Norte 55 Nordeste 0 1007.2 -0.4 64
2019-08-13 03:00:00 22.7 33 Norte 48 Norte 0 1007.2 0.2 65
2019-08-13 02:00:00 22.9 32 Norte 50 Norte 0 1007.8 1.2 65
2019-08-13 01:00:00 23.3 31 Norte 52 Norte 0 1007.6 1.5 67
2019-08-13 00:00:00 23.7 40 Norte 52 Norte 0 1007 1.7 66
2019-08-12 23:00:00 23.8 41 Norte 55 Norte 0 1006.6 1.8 64
2019-08-12 22:00:00 23.9 37 Nordeste 50 Nordeste 0 1006.1 1.7 64
2019-08-12 21:00:00 23.7 35 Norte 48 Norte 0 1005.3 1 64
2019-08-12 20:00:00 24.4 37 Norte 52 Norte 0 1004.8 0.7 65
2019-08-12 19:00:00 25.6 40 Norte 52 Norte 0 1004.4 -0.3 63
2019-08-12 18:00:00 26.5 37 Norte 46 Norte 0 1004.3 -0.9 62
2019-08-12 17:00:00 26.4 34 Norte 46 Norte 0 1004.1 -0.9 66
2019-08-12 16:00:00 26.6 36 Norte 45 Norte 0 1004.7 -0.3 69
2019-08-12 15:00:00 25.1 27 Norte 35 Norte 0 1005.2 0.6 77
2019-08-12 14:00:00 24.7 21 Norte 45 Norte 0 1005 0.8 82
2019-08-12 13:00:00 24.7 24 Norte 42 Norte 0 1005 1.4 82
2019-08-12 12:00:00 25.2 23 Norte 37 Norte 0 1004.6 2.2 81
2019-08-12 11:00:00 25.6 22 Nordeste 46 Norte 0 1004.2 1.7 80
2019-08-12 10:00:00 25.8 22 Nordeste 39 Nordeste 0 1003.6 1.1 79
2019-08-12 09:00:00 25.3 33 Nordeste 46 Nordeste 0 1002.4 0.7 77
2019-08-12 08:00:00 24.2 29 Nordeste 45 Norte 0 1002.5 1.6 83
2019-08-12 07:00:00 24.5 27 Norte 42 Norte 0 1002.5 0.2 87
2019-08-12 06:00:00 24.8 17 Norte 28 Norte 0 1001.7 -1.8 94
2019-08-12 05:00:00 24.6 8 Nordeste 15 Nordeste 0 1000.9 -2.7 93
2019-08-12 04:00:00 24.7 8 Norte 11 Noroeste 0 1002.3 -0.8 93
2019-08-12 03:00:00 25.1 6 Noroeste 13 Sudoeste 0 1003.5 0.3 93
2019-08-12 02:00:00 25.1 7 Oeste 13 Nordeste 0 1003.6 0.5 92
2019-08-12 01:00:00 25.6 10 Norte 15 Nordeste 0 1003.1 0 92
2019-08-12 00:00:00 25.9 10 Nordeste 15 Nordeste 0 1003.2 0.5 89
2019-08-11 23:00:00 25.8 0 Calma 9 Oeste 0 1003.1 0.9 88
2019-08-11 22:00:00 26.3 0 Calma 9 Sudoeste 0 1003.1 1 87
2019-08-11 21:00:00 26.6 6 Oeste 9 Oeste 0 1002.7 0.6 87
2019-08-11 20:00:00 27.4 7 Sur 18 Sudoeste 0 1002.2 -0.4 82
2019-08-11 19:00:00 28.3 12 Sur 21 Sur 0 1002.1 -0.9 75
2019-08-11 18:00:00 30.1 15 Sur 30 Sudoeste 0 1002.1 -1.2 66
2019-08-11 17:00:00 29.8 13 Sudoeste 28 Sudoeste 0 1002.6 -0.8 68
2019-08-11 16:00:00 30.6 15 Sur 26 Sudoeste 0 1003 -0.4 60
2019-08-11 15:00:00 30.2 18 Sudoeste 30 Sudoeste 0 1003.3 -0.7 70
2019-08-11 14:00:00 30.8 22 Sur 41 Sudeste 0 1003.4 -0.6 68
2019-08-11 13:00:00 30.7 24 Sur 32 Sur 0 1003.4 -0.2 63
2019-08-11 12:00:00 30.1 17 Sur 30 Sur 0 1004 0 68
2019-08-11 11:00:00 29 16 Sudeste 35 Sur 0 1004 0.2 72
2019-08-11 10:00:00 28.3 15 Sudeste 26 Norte 0 1003.6 -0.2 74
2019-08-11 09:00:00 26.6 13 Sudeste 32 Sudeste 0 1004 0.1 86
2019-08-11 08:00:00 24.9 10 Este 21 Este 0 1003.8 -0.3 93
2019-08-11 07:00:00 24.1 8 Este 9 Este 0 1003.8 -0.7 94
2019-08-11 06:00:00 24 8 Este 11 Este 0 1003.9 -0.8 94
2019-08-11 05:00:00 24.2 7 Nordeste 11 Este 0 1004.1 -1.1 94
2019-08-11 04:00:00 24.5 6 Este 13 Este 0 1004.5 -1 94
2019-08-11 03:00:00 24.7 10 Este 13 Nordeste 0 1004.7 -0.9 94
2019-08-11 02:00:00 24.8 6 Este 11 Norte 0 1005.2 -0.5 93
2019-08-11 01:00:00 25.2 8 Nordeste 15 Nordeste 0 1005.5 -0.3 92
2019-08-11 00:00:00 25.3 7 Este 21 Este 0 1005.6 0.2 91
2019-08-10 23:00:00 25.6 9 Este 21 Este 0 1005.7 0.3 89
2019-08-10 22:00:00 26 11 Este 22 Este 0 1005.8 0.6 87
2019-08-10 21:00:00 26.5 13 Este 26 Este 0 1005.4 0.1 83
2019-08-10 20:00:00 27.7 14 Nordeste 30 Nordeste 0 1005.4 0 77
2019-08-10 19:00:00 29 15 Nordeste 32 Este 0 1005.2 -0.7 70
2019-08-10 18:00:00 30.4 16 Nordeste 30 Este 0 1005.3 -0.7 63
2019-08-10 17:00:00 31.4 14 Este 28 Este 0 1005.4 -1 57
2019-08-10 16:00:00 31.8 16 Este 30 Este 0 1005.9 -0.5 55
2019-08-10 15:00:00 31.4 13 Nordeste 32 Nordeste 0 1006 -0.4 56
2019-08-10 14:00:00 31.7 18 Nordeste 30 Nordeste 0 1006.4 0.3 58
2019-08-10 13:00:00 31.7 18 Nordeste 30 Nordeste 0 1006.4 0.7 55
2019-08-10 12:00:00 31.7 15 Nordeste 24 Nordeste 0 1006.4 0.8 51
2019-08-10 11:00:00 31.5 14 Nordeste 24 Nordeste 0 1006.1 0.8 47
2019-08-10 10:00:00 29.5 4 Nordeste 18 Norte 0 1005.7 1.4 62
2019-08-10 09:00:00 26.7 3 Sudoeste 9 Sudoeste 0 1005.6 2 86
2019-08-10 08:00:00 24.9 3 Norte 13 Sudoeste 0 1005.3 1.6 95
2019-08-10 07:00:00 24.3 10 Sudoeste 15 Sudoeste 0 1004.3 0.8 95
2019-08-10 06:00:00 24.5 10 Sudoeste 22 Sudoeste 0 1003.6 0.2 94
2019-08-10 05:00:00 24.8 15 Sudoeste 22 Sudoeste 0 1003.7 0.3 94
2019-08-10 04:00:00 24.8 14 Sudoeste 22 Sudoeste 0 1003.5 -0.1 94
2019-08-10 03:00:00 24.8 14 Sudoeste 22 Sudoeste 0 1003.4 -0.4 94
2019-08-10 02:00:00 24.9 15 Sudoeste 26 Sudoeste 0 1003.4 -0.3 94
2019-08-10 01:00:00 25 16 Sudoeste 22 Sudoeste 0 1003.6 0.1 92
2019-08-10 00:00:00 24.9 13 Sudoeste 24 Sudoeste 0 1003.8 0.9 92
2019-08-09 23:00:00 25.1 14 Sur 22 Sudoeste 0 1003.7 1.2 92
2019-08-09 22:00:00 25.6 16 Sur 24 Sur 0 1003.5 0.9 90
2019-08-09 21:00:00 25.9 14 Sudoeste 26 Sur 0 1002.9 -0.1 87
2019-08-09 20:00:00 26.8 18 Sudoeste 28 Sudoeste 0 1002.5 -0.8 84
2019-08-09 19:00:00 28.5 21 Sur 33 Sudoeste 0 1002.6 -1.1 76
2019-08-09 18:00:00 28.7 23 Sudoeste 33 Sur 0 1003 -1 75
2019-08-09 17:00:00 28.7 24 Sudoeste 37 Sur 0 1003.3 -0.9 75
2019-08-09 16:00:00 29.2 26 Sudoeste 39 Sudoeste 0 1003.7 -0.8 72
2019-08-09 15:00:00 30.1 22 Sur 33 Sur 0 1004 -0.4 69
2019-08-09 14:00:00 29.8 22 Sur 32 Sur 0 1004.2 0.1 69
2019-08-09 13:00:00 29.3 21 Sur 30 Sur 0 1004.5 0.7 72
2019-08-09 12:00:00 28.6 19 Sudoeste 32 Sur 0 1004.4 0.6 74
2019-08-09 11:00:00 28.6 17 Sur 28 Sur 0 1004.1 0.4 75
2019-08-09 10:00:00 27.7 16 Sur 24 Sur 0 1003.8 0.2 79
2019-08-09 09:00:00 26.9 13 Sur 18 Sur 0 1003.8 0.3 83
2019-08-09 08:00:00 25.5 10 Sudoeste 15 Sudoeste 0 1003.7 0.2 89
2019-08-09 07:00:00 24.2 6 Sudoeste 15 Sudoeste 0 1003.6 0.1 92
2019-08-09 06:00:00 24.5 10 Sudoeste 17 Sudoeste 0 1003.5 0 90
2019-08-09 05:00:00 24.7 11 Sudoeste 18 Sur 0 1003.5 0 89
2019-08-09 04:00:00 24.9 14 Sur 21 Sur 0 1003.5 0 89
2019-08-09 03:00:00 24.7 11 Sur 15 Sur 0 1003.5 0.1 91
2019-08-09 02:00:00 24.8 11 Sur 17 Sur 0 1003.5 0.1 90
2019-08-09 01:00:00 25.2 12 Sur 18 Sur 0 1003.5 0.6 90
2019-08-09 00:00:00 25.1 10 Sur 17 Sur 0 1003.4 1 91
2019-08-08 23:00:00 25.3 10 Sur 21 Sur 0 1003.4 1.2 90
2019-08-08 22:00:00 25.4 8 Sur 15 Sur 0 1002.9 0.6 88
2019-08-08 21:00:00 26.2 10 Sur 17 Sur 0 1002.4 -0.1 86
2019-08-08 20:00:00 27.4 13 Sur 17 Sur 0 1002.2 -0.6 80
2019-08-08 19:00:00 28.5 13 Sudoeste 21 Sur 0 1002.3 -0.9 73
2019-08-08 18:00:00 29 14 Sudoeste 24 Sudoeste 0 1002.5 -1.1 69
2019-08-08 17:00:00 29.5 15 Sur 30 Sur 0 1002.8 -0.7 68
2019-08-08 16:00:00 29.6 15 Sur 30 Sur 0 1003.2 -0.2 68
2019-08-08 15:00:00 29.8 16 Sudoeste 28 Sudoeste 0 1003.6 0.2 66
2019-08-08 14:00:00 29.8 19 Sur 26 Sur 0 1003.5 0.2 64
2019-08-08 13:00:00 29.1 16 Sudoeste 24 Sudoeste 0 1003.4 0.4 63
2019-08-08 12:00:00 29.4 12 Sur 42 Sudeste 0 1003.4 0.9 62
2019-08-08 11:00:00 28.9 12 Sur 21 Sur 0 1003.3 1.1 68
2019-08-08 10:00:00 29.5 2 Noroeste 18 Nordeste 0 1003 0.9 62
2019-08-08 09:00:00 27.1 13 Nordeste 24 Nordeste 0 1002.5 1 75
2019-08-08 08:00:00 25 14 Norte 18 Norte 0 1002.2 0.5 88
2019-08-08 07:00:00 23.3 10 Norte 17 Norte 0 1002.1 0.4 92
2019-08-08 06:00:00 23.7 10 Norte 13 Norte 0 1001.5 -0.4 93
2019-08-08 05:00:00 22.9 3 Oeste 5 Noroeste 0 1001.7 -0.2 93
2019-08-08 04:00:00 22.2 0 Calma 4 Sudoeste 0 1001.7 -0.7 92
2019-08-08 03:00:00 22.8 0 Calma 8 Sudeste 0 1001.9 -0.2 91
2019-08-08 02:00:00 23.9 5 Sudeste -- -- 0 1001.9 0.1 91
2019-08-08 01:00:00 23.7 0 Calma 8 Sudeste 0 1002.4 0.8 89
2019-08-08 00:00:00 24.3 0 Calma 13 Nordeste 0 1002.1 1.1 87
2019-08-07 23:00:00 25.2 7 Nordeste 15 Nordeste 0 1001.8 1 86
2019-08-07 22:00:00 25.6 14 Norte 21 Norte 0 1001.6 0.9 84
2019-08-07 21:00:00 26.6 10 Norte 15 Norte 0 1001 0.4 78
2019-08-07 20:00:00 28 9 Este 13 Norte 0 1000.8 0.2 72
2019-08-07 19:00:00 29.2 9 Noroeste 21 Oeste 0 1000.7 -0.3 68
2019-08-07 18:00:00 29.8 12 Oeste 22 Oeste 0 1000.6 -0.8 67
2019-08-07 17:00:00 29.6 14 Oeste 22 Oeste 0 1000.6 -0.9 67
2019-08-07 16:00:00 29.6 14 Oeste 28 Sudoeste 0 1001 -0.4 66
2019-08-07 15:00:00 29.3 19 Sudoeste 28 Oeste 0 1001.4 0.1 68
2019-08-07 14:00:00 29.2 19 Sudoeste 30 Sudoeste 0 1001.5 0.8 68
2019-08-07 13:00:00 28.8 17 Sudoeste 28 Sudoeste 0 1001.4 1.1 71
2019-08-07 12:00:00 28.3 17 Sudoeste 24 Sur 0 1001.3 1.1 74
2019-08-07 11:00:00 28.2 14 Sudoeste 24 Sudoeste 0 1000.7 0.6 73
2019-08-07 10:00:00 27.6 14 Sur 22 Sur 0 1000.3 0.7 77
2019-08-07 09:00:00 26.8 3 Sudoeste 9 Sudoeste 0 1000.2 0.5 81
2019-08-07 08:00:00 25.1 4 Sudoeste 8 Sudoeste 0 1000.1 -0.1 89
2019-08-07 07:00:00 24.1 7 Sur 15 Sudoeste 0 999.6 -0.7 91
2019-08-07 06:00:00 24.5 12 Sudoeste 17 Sudoeste 0 999.7 -0.9 91
2019-08-07 05:00:00 24.7 11 Sudoeste 17 Sudoeste 0 1000.2 -0.8 91
2019-08-07 04:00:00 24.7 12 Sudoeste 18 Sur 0 1000.3 -1.3 92
2019-08-07 03:00:00 24.2 7 Sudoeste 11 Sur 0 1000.6 -1 93
2019-08-07 02:00:00 24 7 Sur 11 Sur 0 1001 0 92
2019-08-07 01:00:00 24.6 4 Sudeste 8 Sudeste 0 1001.6 1 90
2019-08-07 00:00:00 24.7 3 Este 17 Nordeste 0 1001.6 1 88
2019-08-06 23:00:00 25.2 8 Este 26 Este 0 1001 0.7 86
2019-08-06 22:00:00 25.6 7 Sudeste 24 Este 0 1000.6 0.3 86
2019-08-06 21:00:00 26.1 9 Sur 15 Sur 0 1000.6 -0.2 84
2019-08-06 20:00:00 28.3 9 Sur 17 Sur 0 1000.3 -1.2 74
2019-08-06 19:00:00 29.3 10 Oeste 22 Oeste 0 1000.3 -1.6 69
2019-08-06 18:00:00 29.5 15 Oeste 30 Oeste 0 1000.8 -1.4 69
2019-08-06 17:00:00 29.2 21 Oeste 28 Oeste 0 1001.5 -1.1 69
2019-08-06 16:00:00 29.8 17 Oeste 28 Sudoeste 0 1001.9 -0.8 65
2019-08-06 15:00:00 29.3 15 Sudoeste 26 Sudoeste 0 1002.2 -0.9 67
2019-08-06 14:00:00 29.2 18 Sur 28 Sudoeste 0 1002.6 -0.4 69
2019-08-06 13:00:00 28.6 15 Sur 32 Sudeste 0 1002.7 -0.5 72
2019-08-06 12:00:00 29.1 18 Sur 33 Sudeste 0 1003.1 -0.1 69
2019-08-06 11:00:00 29 17 Sudeste 41 Sur 0 1003 0.1 70
2019-08-06 10:00:00 28.2 16 Sudeste 30 Sudeste 0 1003.2 0.3 74
2019-08-06 09:00:00 26.8 16 Sudeste 28 Este 0 1003.2 0.4 81
2019-08-06 08:00:00 25 10 Este 21 Este 0 1002.9 -0.5 92
2019-08-06 07:00:00 23.6 11 Este 21 Este 0 1002.9 -0.9 93
2019-08-06 06:00:00 23.8 11 Nordeste 13 Nordeste 0 1002.8 -1.3 93
2019-08-06 05:00:00 24.2 5 Este 13 Sudeste 0 1003.4 -0.8 92
2019-08-06 04:00:00 23.8 9 Sudeste 11 Sudeste 0 1003.8 -0.2 91
2019-08-06 03:00:00 23.9 8 Sudeste 9 Sudeste 0 1004.1 0.4 90
2019-08-06 02:00:00 24.2 6 Sudeste 13 Sudeste 0 1004.2 0.4 88
2019-08-06 01:00:00 24.6 9 Sudeste 17 Este 0 1004 0.5 87
2019-08-06 00:00:00 24.7 12 Este 17 Sudeste 0 1003.7 0.3 87
2019-08-05 23:00:00 24.7 9 Este 24 Este 0 1003.8 0.4 87
2019-08-05 22:00:00 25.1 11 Este 28 Este 0 1003.5 -0.1 85
2019-08-05 21:00:00 26.1 12 Sudeste 18 Este 0 1003.4 -0.6 76
2019-08-05 20:00:00 28.5 13 Sudeste 35 Sudeste 0 1003.4 -0.9 53
2019-08-05 19:00:00 29.8 17 Sudeste 35 Sudeste 0 1003.6 -1.1 39
2019-08-05 18:00:00 29.7 17 Sudeste 30 Sur 0 1004 -1 50
2019-08-05 17:00:00 31.2 19 Sudeste 28 Sur 0 1004.3 -0.9 41
2019-08-05 16:00:00 31.8 17 Sudeste 32 Sur 0 1004.7 -0.7 33
2019-08-05 15:00:00 31.2 18 Sudeste 28 Sudeste 0 1005 -0.6 44
2019-08-05 14:00:00 31.2 20 Sudeste 35 Sudeste 0 1005.2 -0.4 37
2019-08-05 13:00:00 31.3 17 Este 42 Este 0 1005.4 0 46
2019-08-05 12:00:00 30.5 18 Sudeste 37 Sudeste 0 1005.6 0.4 52
2019-08-05 11:00:00 29.7 15 Sudeste 41 Este 0 1005.6 0.5 55
2019-08-05 10:00:00 28.8 15 Este 37 Sur 0 1005.4 0.3 55
2019-08-05 09:00:00 27 12 Este 32 Este 0 1005.2 0.4 66
2019-08-05 08:00:00 24.3 10 Este 24 Norte 0 1005.1 -0.1 85
2019-08-05 07:00:00 22 12 Este 15 Este 0 1005.1 -0.2 91
2019-08-05 06:00:00 22.2 13 Este 15 Nordeste 0 1004.8 -0.6 90
2019-08-05 05:00:00 22.8 10 Nordeste 13 Nordeste 0 1005.2 -0.5 91
2019-08-05 04:00:00 22 11 Este -- -- 0 1005.3 -0.2 87
2019-08-05 03:00:00 21.1 5 Este 8 Este 0 1005.4 0.2 90
2019-08-05 02:00:00 20.9 0 Calma 4 Sur 0 1005.7 0.8 86
2019-08-05 01:00:00 21.8 0 Calma 9 Este 0 1005.5 0.9 83
2019-08-05 00:00:00 23.9 7 Sudeste 11 Sudeste 0 1005.2 0.8 80
2019-08-04 23:00:00 24.2 9 Sudeste 26 Este 0 1004.9 0.6 78
2019-08-04 22:00:00 25 10 Sudeste 30 Sudeste 0 1004.6 0.3 73
2019-08-04 21:00:00 25.9 11 Sudeste 17 Sudeste 0 1004.4 -0.2 69
2019-08-04 20:00:00 27.7 12 Sudeste 21 Sudeste 0 1004.3 -0.6 59
2019-08-04 19:00:00 29 14 Sur 24 Sudeste 0 1004.3 -0.9 53
2019-08-04 18:00:00 29.6 13 Sur 26 Sur 0 1004.6 -0.8 50
2019-08-04 17:00:00 30.8 15 Sur 32 Sur 0 1004.9 -0.5 42
2019-08-04 16:00:00 31.2 20 Sur 30 Sur 0 1005.2 -0.3 37
2019-08-04 15:00:00 31.4 21 Sur 32 Sudeste 0 1005.4 -0.2 33
2019-08-04 14:00:00 31.9 19 Sur 32 Sur 0 1005.4 0.1 29
2019-08-04 13:00:00 32.2 19 Sur 30 Sur 0 1005.5 0.5 30
2019-08-04 12:00:00 30.8 14 Sur 22 Sur 0 1005.6 1 39
2019-08-04 11:00:00 31.2 6 Sudoeste 17 Sur 0 1005.3 1.4 33
2019-08-04 10:00:00 30.4 5 Nordeste 15 Nordeste 0 1005 1.1 31
2019-08-04 09:00:00 27.9 12 Norte 24 Norte 0 1004.6 0.4 40
2019-08-04 08:00:00 24.1 13 Norte 24 Nordeste 0 1003.9 -0.4 69
2019-08-04 07:00:00 20.4 12 Nordeste 17 Nordeste 0 1003.9 -0.8 88
2019-08-04 06:00:00 20.9 8 Norte 13 Norte 0 1004.2 -0.4 89
2019-08-04 05:00:00 21.2 8 Noroeste 9 Noroeste 0 1004.3 0 90
2019-08-04 04:00:00 21.6 10 Sudoeste 11 Oeste 0 1004.7 0.1 89
2019-08-04 03:00:00 21.5 9 Oeste 11 Oeste 0 1004.6 0.2 86
2019-08-04 02:00:00 20.9 6 Sudoeste 8 Sudoeste 0 1004.3 -0.1 80
2019-08-04 01:00:00 22.2 7 Sur 11 Sur 0 1004.6 0.5 75
2019-08-04 00:00:00 24.2 6 Este 18 Norte 0 1004.4 0.6 71
2019-08-03 23:00:00 24.4 6 Este 18 Norte 0 1004.4 1.2 67
2019-08-03 22:00:00 24.7 5 Este 11 Este 0 1004.1 0.5 66
2019-08-03 21:00:00 25.9 6 Este 24 Este 0 1003.8 -0.5 58
2019-08-03 20:00:00 28.1 18 Este 35 Este 0 1003.2 -1.7 46
2019-08-03 19:00:00 29.4 19 Este 35 Este 0 1003.6 -1.6 37
2019-08-03 18:00:00 30 16 Nordeste 32 Este 0 1004.3 -1.4 38
2019-08-03 17:00:00 30.4 16 Nordeste 26 Este 0 1004.9 -0.8 36
2019-08-03 16:00:00 30.7 18 Nordeste 30 Nordeste 0 1005.2 -0.5 33
2019-08-03 15:00:00 31.2 17 Nordeste 30 Este 0 1005.7 0 31
2019-08-03 14:00:00 31.7 17 Nordeste 30 Este 0 1005.7 0.2 29
2019-08-03 13:00:00 31.5 18 Este 32 Este 0 1005.7 0.5 28
2019-08-03 12:00:00 31 14 Nordeste 30 Norte 0 1005.7 1 31
2019-08-03 11:00:00 29.9 22 Nordeste 35 Norte 0 1005.5 0.5 34
2019-08-03 10:00:00 28.3 31 Norte 45 Norte 0 1005.2 0.6 47
2019-08-03 09:00:00 26.6 28 Norte 39 Norte 0 1004.7 0.2 63
2019-08-03 08:00:00 23.9 9 Norte 15 Norte 0 1005 0.5 77
2019-08-03 07:00:00 20.7 10 Noroeste 13 Noroeste 0 1004.6 -0.4 80
2019-08-03 06:00:00 19.5 8 Noroeste 9 Noroeste 0 1004.5 -0.6 80
2019-08-03 05:00:00 20.7 11 Norte 13 Norte 0 1004.5 -0.7 75
2019-08-03 04:00:00 19 8 Noroeste 9 Oeste 0 1005 -0.3 83
2019-08-03 03:00:00 19.9 6 Noroeste 11 Noroeste 0 1005.1 0.1 81
2019-08-03 02:00:00 20.1 7 Noroeste -- -- 0 1005.2 0.4 82
2019-08-03 01:00:00 20.1 0 Calma 8 Oeste 0 1005.3 0.9 79
2019-08-03 00:00:00 21.8 2 Norte 13 Norte 0 1005 1.1 76
2019-08-02 23:00:00 22.6 12 Norte 17 Norte 0 1004.8 1.1 74
2019-08-02 22:00:00 23.3 12 Norte 21 Norte 0 1004.4 0.6 72
2019-08-02 21:00:00 24.2 16 Norte 30 Norte 0 1003.9 -0.2 69
2019-08-02 20:00:00 26.1 23 Norte 30 Nordeste 0 1003.7 -0.8 57
2019-08-02 19:00:00 27.3 21 Norte 32 Nordeste 0 1003.8 -0.9 50
2019-08-02 18:00:00 28.4 21 Norte 33 Nordeste 0 1004.1 -0.7 44
2019-08-02 17:00:00 28.6 21 Nordeste 33 Nordeste 0 1004.5 -0.2 51
2019-08-02 16:00:00 28.7 23 Nordeste 37 Nordeste 0 1004.7 0.3 49
2019-08-02 15:00:00 29.1 26 Nordeste 45 Nordeste 0 1004.8 0.9 50
2019-08-02 14:00:00 28.9 24 Norte 37 Nordeste 0 1004.7 1.2 47
2019-08-02 13:00:00 28.6 25 Norte 39 Norte 0 1004.4 1.4 49
2019-08-02 12:00:00 28.7 30 Norte 42 Nordeste 0 1003.9 1.8 50
2019-08-02 11:00:00 28.4 32 Nordeste 45 Nordeste 0 1003.5 1.8 46
2019-08-02 10:00:00 27.7 35 Nordeste 50 Norte 0 1003 1.4 47
2019-08-02 09:00:00 26.1 35 Norte 46 Norte 0 1002.1 0.7 51
2019-08-02 08:00:00 24.3 33 Norte 45 Norte 0 1001.7 -0.3 71
2019-08-02 07:00:00 23.3 26 Norte 35 Norte 0 1001.6 0.2 87
2019-08-02 06:00:00 23.7 25 Norte 33 Norte 0 1001.4 -0.9 93
2019-08-02 05:00:00 24 18 Norte 26 Norte 0 1002 -0.5 93
2019-08-02 04:00:00 24.2 20 Norte 28 Norte 0 1001.4 -1 93
2019-08-02 03:00:00 24.3 11 Norte 17 Norte 0 1002.3 1 92
2019-08-02 02:00:00 24.6 6 Noroeste 13 Noroeste 0 1002.5 1.6 92
2019-08-02 01:00:00 24.8 2 Sudeste 18 Nordeste 0 1002.4 1.6 91
2019-08-02 00:00:00 24.9 14 Nordeste 28 Norte 0 1001.3 0.8 90
2019-08-01 23:00:00 25.2 22 Norte 30 Norte 0 1000.9 -0.4 89
2019-08-01 22:00:00 25.7 14 Nordeste 28 Nordeste 0 1000.8 0.3 86
2019-08-01 21:00:00 26.4 19 Nordeste 28 Este 0 1000.5 -0.6 81
2019-08-01 20:00:00 28 6 Sudoeste 15 Sudoeste 0 1001.3 -0.1 69
2019-08-01 19:00:00 30 7 Sudoeste 22 Este 0 1000.5 -1.3 57
2019-08-01 18:00:00 30.8 11 Sudeste 32 Este 0 1001.1 -1.1 57
2019-08-01 17:00:00 31.9 12 Sur 26 Sudeste 0 1001.4 -1.2 49
2019-08-01 16:00:00 31.5 13 Este 26 Este 0 1001.8 -0.6 51
2019-08-01 15:00:00 30.1 17 Este 30 Sudeste 0 1002.2 0.1 56
2019-08-01 14:00:00 29.6 19 Este 35 Sudeste 0 1002.6 0.2 55
2019-08-01 13:00:00 30.4 22 Este 42 Este 0 1002.4 -0.3 53
2019-08-01 12:00:00 29.4 32 Este 45 Este 0 1002.1 -0.6 55
2019-08-01 11:00:00 28.5 28 Este 45 Norte 0 1002.4 -0.1 59
2019-08-01 10:00:00 27.2 27 Este 41 Este 0 1002.7 0 64
2019-08-01 09:00:00 25.9 28 Este 41 Este 0 1002.7 -0.3 68
2019-08-01 08:00:00 24.1 23 Nordeste 39 Este 0 1002.5 -1.2 71
2019-08-01 07:00:00 23.4 23 Este 41 Nordeste 0 1002.7 -1.7 71
2019-08-01 06:00:00 23.2 25 Nordeste 39 Nordeste 0 1003 -1.8 78
2019-08-01 05:00:00 23.2 27 Nordeste 35 Nordeste 0 1003.7 -1.7 78
2019-08-01 04:00:00 23.1 23 Nordeste 32 Nordeste 0 1004.4 -0.4 81
2019-08-01 03:00:00 23 19 Nordeste 28 Nordeste 0 1004.8 -0.4 81
2019-08-01 02:00:00 23.2 17 Nordeste 32 Este 0 1005.4 -0.7 78
2019-08-01 01:00:00 23.2 23 Este 33 Nordeste 0 1004.8 -1.2 73
2019-08-01 00:00:00 23.3 25 Nordeste 33 Nordeste 0 1005.2 0.3 72
2019-07-31 23:00:00 23.2 16 Nordeste 28 Nordeste 0 1006.1 0.9 71
2019-07-31 22:00:00 23.4 16 Nordeste 37 Nordeste 0 1006 0 67
2019-07-31 21:00:00 23.7 30 Nordeste 42 Nordeste 0 1004.9 -0.9 64
2019-07-31 20:00:00 24 30 Nordeste 39 Nordeste 0 1005.2 -1.1 62
2019-07-31 19:00:00 24.6 26 Nordeste 41 Norte 0 1006 -0.1 59
2019-07-31 18:00:00 26.3 31 Nordeste 41 Nordeste 0 1005.8 -0.8 54
2019-07-31 17:00:00 26.6 32 Nordeste 46 Nordeste 0 1006.3 -0.6 52
2019-07-31 16:00:00 27.3 33 Nordeste 54 Nordeste 0 1006.1 -1.2 49
2019-07-31 15:00:00 26.3 38 Nordeste 50 Nordeste 0 1006.6 -1.1 48
2019-07-31 14:00:00 25.9 37 Nordeste 50 Nordeste 0 1006.9 -1.2 50
2019-07-31 13:00:00 25.7 41 Nordeste 54 Nordeste 0 1007.3 -0.6 54
2019-07-31 12:00:00 26.8 37 Nordeste 52 Nordeste 0 1007.7 0.3 54
2019-07-31 11:00:00 26.2 33 Nordeste 50 Nordeste 0 1008.1 1.3 57
2019-07-31 10:00:00 25.3 38 Nordeste 54 Nordeste 0 1007.9 1.1 60
2019-07-31 09:00:00 24.5 39 Nordeste 52 Nordeste 0 1007.4 1 66
2019-07-31 08:00:00 23.4 34 Nordeste 45 Nordeste 0 1006.8 0.9 70
2019-07-31 07:00:00 22.5 30 Nordeste 42 Norte 0 1006.8 0.6 75
2019-07-31 06:00:00 22.6 32 Nordeste 46 Nordeste 0 1006.4 0.2 73
2019-07-31 05:00:00 22.8 35 Nordeste 46 Nordeste 0 1005.9 -0.4 73
2019-07-31 04:00:00 23.1 31 Nordeste 42 Nordeste 0 1006.2 -0.3 71
2019-07-31 03:00:00 23.2 32 Nordeste 41 Nordeste 0 1006.2 -0.3 70
2019-07-31 02:00:00 23.4 28 Nordeste 39 Nordeste 0 1006.3 0 72
2019-07-31 01:00:00 23.5 24 Nordeste 35 Nordeste 0 1006.5 0.5 72
2019-07-31 00:00:00 23.6 20 Nordeste 32 Nordeste 0 1006.5 1.1 72
2019-07-30 23:00:00 23.7 22 Nordeste 30 Nordeste 0 1006.3 1.3 70
2019-07-30 22:00:00 23.7 17 Nordeste 28 Nordeste 0 1006 1.3 70
2019-07-30 21:00:00 24.1 18 Nordeste 30 Este 0 1005.4 0.4 69
2019-07-30 20:00:00 25.5 20 Nordeste 32 Nordeste 0 1005 -0.1 64
2019-07-30 19:00:00 26.1 21 Nordeste 37 Este 0 1004.7 -0.4 63
2019-07-30 18:00:00 26.9 20 Nordeste 32 Nordeste 0 1005 -0.2 61
2019-07-30 17:00:00 27.3 23 Nordeste 35 Nordeste 0 1005.1 -0.1 60
2019-07-30 16:00:00 28 23 Nordeste 35 Norte 0 1005.1 -0.1 58
2019-07-30 15:00:00 28.4 22 Nordeste 32 Nordeste 0 1005.2 0 58
2019-07-30 14:00:00 28.7 22 Nordeste 35 Nordeste 0 1005.2 0.3 56
2019-07-30 13:00:00 28.6 22 Nordeste 37 Nordeste 0 1005.2 0.5 59
2019-07-30 12:00:00 28.5 25 Nordeste 39 Nordeste 0 1005.2 0.8 60
2019-07-30 11:00:00 29.7 16 Norte 33 Norte 0 1004.9 1.1 52
2019-07-30 10:00:00 28.3 8 Norte 17 Noroeste 0 1004.7 1.6 54
2019-07-30 09:00:00 26.1 8 Oeste 15 Oeste 0 1004.4 1.6 73
2019-07-30 08:00:00 24.2 7 Oeste 11 Oeste 0 1003.8 1.1 81
2019-07-30 07:00:00 21.3 6 Oeste 11 Oeste 0 1003.1 0.4 88
2019-07-30 06:00:00 22 9 Oeste 13 Oeste 0 1002.8 0 87
2019-07-30 05:00:00 22.1 9 Sudoeste 13 Sudoeste 0 1002.7 -0.1 88
2019-07-30 04:00:00 20.7 8 Sudoeste 9 Oeste 0 1002.7 0 88
2019-07-30 03:00:00 21.9 3 Sudoeste 9 Sudoeste 0 1002.8 0.2 87
2019-07-30 02:00:00 22.9 9 Sudoeste 13 Sudoeste 0 1002.8 0.6 85
2019-07-30 01:00:00 23 10 Sur 15 Sudoeste 0 1002.7 0.8 85
2019-07-30 00:00:00 22.7 10 Sudoeste 11 Sudoeste 0 1002.6 1.3 84
2019-07-29 23:00:00 23.2 9 Sur 11 Sur 0 1002.2 1 82
2019-07-29 22:00:00 23.9 9 Sudoeste 21 Sudoeste 0 1001.9 0.7 79
2019-07-29 21:00:00 25.1 12 Sudoeste 22 Sudoeste 0 1001.3 -0.1 72
2019-07-29 20:00:00 26.6 15 Sudoeste 24 Sudoeste 0 1001.2 -0.5 64
2019-07-29 19:00:00 27.1 17 Sudoeste 28 Sudoeste 0 1001.2 -0.6 63
2019-07-29 18:00:00 27.4 18 Sudoeste 28 Sudoeste 0 1001.4 -0.6 60
2019-07-29 17:00:00 28 15 Sudoeste 26 Sudoeste 0 1001.7 -0.5 58
2019-07-29 16:00:00 28.3 15 Sudoeste 28 Sudoeste 0 1001.8 -0.4 55
2019-07-29 15:00:00 27.8 14 Sudoeste 30 Sudoeste 0 1002 -0.1 53
2019-07-29 14:00:00 27.3 20 Sudoeste 33 Sudoeste 0 1002.2 0.1 57
2019-07-29 13:00:00 27.4 22 Sudoeste 33 Sudoeste 0 1002.2 0.4 51
2019-07-29 12:00:00 27.8 17 Sudoeste 24 Sudoeste 0 1002.1 0.5 49
2019-07-29 11:00:00 27.6 14 Sudoeste 24 Oeste 0 1002.1 0.9 49
2019-07-29 10:00:00 26.8 9 Oeste 18 Noroeste 0 1001.8 1.1 54
2019-07-29 09:00:00 25 13 Oeste 21 Noroeste 0 1001.6 1.1 66
2019-07-29 08:00:00 22.6 8 Oeste 13 Oeste 0 1001.2 0.8 79
2019-07-29 07:00:00 20.5 10 Oeste 13 Oeste 0 1000.7 -0.1 90
2019-07-29 06:00:00 20.6 7 Sudoeste 9 Sudoeste 0 1000.5 -0.6 88
2019-07-29 05:00:00 21.1 7 Sur 13 Sudoeste 0 1000.4 -0.9 86
2019-07-29 04:00:00 20.7 8 Sur 13 Sur 0 1000.8 -0.6 81
2019-07-29 03:00:00 21.5 8 Sur 13 Sur 0 1001.1 -0.6 81
2019-07-29 02:00:00 20.5 7 Sur 13 Sur 0 1001.3 -0.6 80
2019-07-29 01:00:00 21.5 8 Sudeste 17 Sudeste 0 1001.4 0 78
2019-07-29 00:00:00 21.3 10 Este 18 Este 0 1001.7 0.8 75
2019-07-28 23:00:00 22 10 Este 26 Este 0 1001.9 1 71
2019-07-28 22:00:00 21.9 8 Este 18 Norte 0 1001.4 1 69
2019-07-28 21:00:00 23.1 9 Este 18 Este 0 1000.9 0.5 62
2019-07-28 20:00:00 24.3 8 Sudeste 18 Norte 0 1000.9 0.3 56
2019-07-28 19:00:00 24.5 9 Este 22 Nordeste 0 1000.4 -0.3 53
2019-07-28 18:00:00 24.1 12 Este 22 Este 0 1000.4 -0.3 54
2019-07-28 17:00:00 25.5 12 Nordeste 28 Norte 0 1000.6 0.2 49
2019-07-28 16:00:00 24.6 21 Nordeste 28 Nordeste 0 1000.7 0.6 51
2019-07-28 15:00:00 26 15 Nordeste 28 Nordeste 0 1000.7 0.5 60
2019-07-28 14:00:00 25.1 16 Nordeste 28 Norte 0 1000.4 1 61
2019-07-28 13:00:00 26.4 9 Nordeste 21 Nordeste 0 1000.1 1.2 53
2019-07-28 12:00:00 24.5 6 Nordeste 32 Nordeste 0.7 1000.2 1.6 63
2019-07-28 11:00:00 25.4 17 Este 28 Este 0 999.4 1.3 52
2019-07-28 10:00:00 24.9 19 Nordeste 32 Nordeste 0 998.9 1.5 56
2019-07-28 09:00:00 23.8 17 Nordeste 32 Norte 0 998.6 2 66
2019-07-28 08:00:00 22.2 9 Norte 17 Nordeste 0 998.1 2 76
2019-07-28 07:00:00 20.8 13 Nordeste 30 Nordeste 0 997.4 1.4 79
2019-07-28 06:00:00 20.2 19 Nordeste 26 Nordeste 0 996.6 0.4 83
2019-07-28 05:00:00 19.7 16 Norte 26 Norte 0 996.1 0 86
2019-07-28 04:00:00 19.7 19 Norte 28 Norte 0 996 0.1 87
2019-07-28 03:00:00 20.5 24 Norte 33 Norte 0.5 996.2 0.7 91
2019-07-28 02:00:00 21.7 23 Norte 41 Norte 0 996.1 1.1 83
2019-07-28 01:00:00 23.1 24 Norte 35 Norte 0 995.9 1.5 82
2019-07-28 00:00:00 22.8 12 Norte 18 Norte 0 995.5 1.9 82
2019-07-27 23:00:00 22.7 12 Oeste 17 Oeste 0 995 1.9 84
2019-07-26 12:00:00 29.9 18 Sur 35 Sudeste 0 1002.2 -0.2 57
2019-07-26 11:00:00 30 19 Sudeste 30 Sudeste 0 1002.4 0 51
2019-07-26 10:00:00 29.2 15 Sudeste 24 Sudeste 0 1002.2 0 56
2019-07-26 09:00:00 27.9 12 Sudeste 30 Sudoeste 0 1002.4 0 65
2019-07-26 08:00:00 24.9 8 Sudeste 28 Sudeste 0 1002.4 -0.2 82
2019-07-26 07:00:00 23 11 Este 15 Este 0 1002.2 -0.8 88
2019-07-26 06:00:00 23.1 8 Este 11 Norte 0 1002.4 -1.1 88
2019-07-26 05:00:00 23.4 9 Nordeste -- -- 0 1002.6 -1.2 88
2019-07-26 04:00:00 23.3 7 Este 11 Norte 0 1003 -1.1 88
2019-07-26 03:00:00 23.5 9 Este 11 Este 0 1003.5 -0.8 88
2019-07-26 02:00:00 23.4 8 Sudeste 11 Sudeste 0 1003.8 -0.4 88
2019-07-26 01:00:00 22.6 5 Sur 9 Sur 0 1004.1 0.2 86
2019-07-26 00:00:00 23.7 5 Sur 11 Sur 0 1004.3 0.3 83
2019-07-25 23:00:00 24.9 6 Sudeste 15 Este 0 1004.2 0.3 79
2019-07-25 22:00:00 25.6 12 Este 33 Este 0 1003.9 -0.2 77
2019-07-25 21:00:00 26.9 11 Este 24 Este 0 1004 -0.4 69
2019-07-25 20:00:00 28.9 13 Sudeste 26 Sudeste 0 1003.9 -1 56
2019-07-25 19:00:00 30.1 15 Sudeste 33 Sudeste 0 1004.1 -1 44
2019-07-25 18:00:00 30.9 16 Sudeste 26 Sudeste 0 1004.4 -0.9 43
2019-07-25 17:00:00 31.8 15 Sudeste 37 Sudeste 0 1004.9 -0.6 37
2019-07-25 16:00:00 32.4 17 Sudeste 35 Este 0 1005.1 -0.2 32
2019-07-25 15:00:00 32 16 Este 28 Sudeste 0 1005.3 0 42
2019-07-25 14:00:00 31.8 17 Este 32 Sudeste 0 1005.5 0 46
2019-07-25 13:00:00 32.4 14 Este 28 Este 0 1005.3 -0.3 37
2019-07-25 12:00:00 32.1 13 Este 24 Este 0 1005.3 -0.4 39
2019-07-25 11:00:00 30.5 12 Este 26 Este 0 1005.5 -0.2 50
2019-07-25 10:00:00 28.7 12 Este 24 Este 0 1005.6 0.3 61
2019-07-25 09:00:00 26.9 11 Este 21 Este 0 1005.7 0.7 77
2019-07-25 08:00:00 25.2 6 Nordeste 11 Nordeste 0 1005.7 0.9 88
2019-07-25 07:00:00 21.4 2 Este 8 Este 0 1005.3 0.3 92
2019-07-25 06:00:00 22.3 6 Sudeste -- -- 0 1005 -0.2 92
2019-07-25 05:00:00 21.9 5 Sudeste 8 Sudeste 0 1004.8 -0.7 90
2019-07-25 04:00:00 23.3 5 Este 9 Este 0 1005 -0.7 91
2019-07-25 03:00:00 23.5 7 Este 9 Este 0 1005.2 -0.7 91
2019-07-25 02:00:00 23.5 6 Este 8 Este 0 1005.5 -0.3 91
2019-07-25 01:00:00 24.1 6 Este 11 Este 0 1005.7 0.1 88
2019-07-25 00:00:00 24.6 7 Este 17 Este 0 1005.9 0.5 87
2019-07-24 23:00:00 25.1 10 Nordeste 18 Norte 0 1005.8 0.5 86
2019-07-24 22:00:00 25.5 9 Este 21 Este 0 1005.6 0.2 84
2019-07-24 21:00:00 26.3 10 Este 21 Este 0 1005.4 -0.3 79
2019-07-24 20:00:00 27.9 15 Este 24 Este 0 1005.3 -0.6 71
2019-07-24 19:00:00 29.3 17 Este 28 Norte 0 1005.4 -0.7 63
2019-07-24 18:00:00 30 15 Este 26 Este 0 1005.7 -0.8 59
2019-07-24 17:00:00 30.7 18 Este 30 Nordeste 0 1005.9 -0.7 57
2019-07-24 16:00:00 31.2 15 Nordeste 28 Este 0 1006.1 -0.7 55
2019-07-24 15:00:00 30.8 13 Nordeste 30 Norte 0 1006.5 -0.2 53
2019-07-24 14:00:00 30.5 17 Nordeste 32 Nordeste 0 1006.6 0 56
2019-07-24 13:00:00 30.5 18 Nordeste 30 Nordeste 0 1006.8 0.2 55
2019-07-24 12:00:00 31.2 14 Nordeste 26 Este 0 1006.7 0.1 47
2019-07-24 11:00:00 30.3 5 Sur 17 Sudoeste 0 1006.6 0.5 49
2019-07-24 10:00:00 30 0 Calma 30 Este 0 1006.6 0.7 48
2019-07-24 09:00:00 27.5 7 Sudeste 28 Este 0 1006.6 0.5 63
2019-07-24 08:00:00 25.5 8 Este 21 Este 0 1006.1 0 83
2019-07-24 07:00:00 23.3 9 Este -- -- 0 1005.9 -0.2 90
2019-07-24 06:00:00 22.9 8 Este 9 Este 0 1006.1 -0.2 89
2019-07-24 05:00:00 22.4 6 Nordeste 9 Nordeste 0 1006.1 -0.5 88
2019-07-24 04:00:00 22.2 7 Nordeste 9 Nordeste 0 1006.1 -0.8 86
2019-07-24 03:00:00 23.6 9 Este 11 Este 0 1006.3 -0.5 85
2019-07-24 02:00:00 23.8 8 Este 11 Este 0 1006.6 -0.2 84
2019-07-24 01:00:00 24.3 10 Este 17 Este 0 1006.9 0.2 80
2019-07-24 00:00:00 24.7 10 Este 26 Este 0 1006.8 0 79
2019-07-23 23:00:00 25.1 12 Este 35 Este 0 1006.8 -0.1 77
2019-07-23 22:00:00 25.6 12 Nordeste 32 Este 0 1006.7 -0.4 72
2019-07-23 21:00:00 26.6 13 Este 17 Este 0 1006.8 -0.5 65
2019-07-23 20:00:00 28.4 13 Este 32 Este 0 1006.9 -0.7 54
2019-07-23 19:00:00 29.7 15 Este 32 Este 0 1007.1 -0.9 48
2019-07-23 18:00:00 31.6 14 Este 41 Este 0 1007.3 -0.7 41
2019-07-23 17:00:00 32.5 12 Sudeste 22 Sur 0 1007.6 -0.7 35
2019-07-23 16:00:00 32.6 15 Sur 26 Sur 0 1008 -0.6 31
2019-07-23 15:00:00 33 12 Sur 24 Sudeste 0 1008 -0.7 26
2019-07-23 14:00:00 32.4 11 Sur 22 Sur 0 1008.3 -0.3 31
2019-07-23 13:00:00 31.2 14 Sur 22 Sur 0 1008.6 0 41
2019-07-23 12:00:00 31.2 13 Sur 22 Sur 0 1008.7 -0.2 34
2019-07-23 11:00:00 30.9 13 Sudeste 24 Sudeste 0 1008.6 0 38
2019-07-23 10:00:00 30 8 Sur 22 Sudoeste 0 1008.6 -0.2 30
2019-07-23 09:00:00 28.3 5 Sudeste 11 Este 0 1008.9 0.2 44
2019-07-23 08:00:00 24.7 4 Este 9 Este 0 1008.6 -0.1 83
2019-07-23 07:00:00 20.8 0 Calma 9 Este 0 1008.8 -0.3 87
2019-07-23 06:00:00 22.7 8 Nordeste -- -- 0 1008.7 -0.7 85
2019-07-23 05:00:00 23.2 10 Norte -- -- 0 1008.7 -1.1 85
2019-07-23 04:00:00 22.5 5 Este 8 Este 0 1009.1 -0.9 83
2019-07-23 03:00:00 23.7 4 Este 8 Este 0 1009.4 -0.7 84
2019-07-23 02:00:00 24 5 Este 9 Este 0 1009.8 -0.4 83
2019-07-23 01:00:00 24.1 8 Este -- -- 0 1010 -0.2 82
2019-07-23 00:00:00 24.3 7 Este 11 Norte 0 1010.1 0 78
2019-07-22 23:00:00 24.9 6 Este 22 Este 0 1010.2 0.1 75
2019-07-22 22:00:00 25.4 4 Sudeste 24 Este 0 1010.2 -0.1 74
2019-07-22 21:00:00 26.5 10 Sudeste 26 Este 0 1010.1 -0.5 69
2019-07-22 20:00:00 28.3 12 Sudeste 30 Este 0 1010.1 -0.8 57
2019-07-22 19:00:00 30 11 Sudeste 22 Este 0 1010.3 -0.8 47
2019-07-22 18:00:00 31.8 12 Sudeste 28 Sudeste 0 1010.6 -0.6 36
2019-07-22 17:00:00 33.3 13 Este 22 Este 0 1010.9 -0.8 29
2019-07-22 16:00:00 32.9 15 Este 37 Sudeste 0 1011.1 -0.7 29
2019-07-22 15:00:00 32.9 13 Este 24 Norte 0 1011.2 -0.8 27
2019-07-22 14:00:00 32.5 14 Este 32 Norte 0 1011.7 -0.3 26
2019-07-22 13:00:00 32.8 14 Sudeste 32 Este 0 1011.8 -0.1 28
2019-07-22 12:00:00 32.1 13 Este 26 Este 0 1012 0.2 29
2019-07-22 11:00:00 31.3 15 Este 28 Este 0 1012 0.5 33
2019-07-22 10:00:00 30.1 9 Este 22 Este 0 1011.9 0.5 38
2019-07-22 09:00:00 27.4 9 Este 24 Este 0 1011.8 0.6 66
2019-07-22 08:00:00 25.1 9 Este 22 Este 0 1011.5 0.4 82
2019-07-22 07:00:00 23.1 13 Nordeste 21 Este 0 1011.4 -0.1 89
2019-07-22 06:00:00 23.2 14 Nordeste 18 Nordeste 0 1011.2 -0.3 88
2019-07-22 05:00:00 23.5 14 Nordeste 18 Nordeste 0 1011.1 -0.6 89
2019-07-22 04:00:00 23.3 11 Nordeste 15 Nordeste 0 1011.5 -0.1 90
2019-07-22 03:00:00 23.3 11 Nordeste 11 Este 0 1011.5 0 90
2019-07-22 02:00:00 23.8 8 Nordeste 11 Nordeste 0 1011.7 0.3 88
2019-07-22 01:00:00 24.1 9 Nordeste 18 Nordeste 0 1011.6 0.9 86
2019-07-22 00:00:00 24.2 11 Nordeste 15 Nordeste 0 1011.5 1.4 84
2019-07-21 23:00:00 24.6 10 Nordeste 26 Este 0 1011.4 1.3 82
2019-07-21 22:00:00 25 9 Nordeste 26 Este 0 1010.7 0.7 75
2019-07-21 21:00:00 26.2 11 Nordeste 30 Norte 0 1010.1 -0.1 63
2019-07-21 20:00:00 28.5 13 Este 21 Sudeste 0 1010.1 -0.5 45
2019-07-21 19:00:00 29.5 12 Este 32 Este 0 1010 -0.7 41
2019-07-21 18:00:00 30 16 Sudeste 41 Este 0 1010.2 -0.7 41
2019-07-21 17:00:00 30.5 19 Sudeste 33 Sudeste 0 1010.6 -0.5 43
2019-07-21 16:00:00 30.8 21 Este 35 Este 0 1010.7 -0.1 45
2019-07-21 15:00:00 30.7 20 Sudeste 32 Este 0 1010.9 0.4 45
2019-07-21 14:00:00 30.6 22 Sudeste 33 Este 0 1011.1 0.9 48
2019-07-21 13:00:00 30.5 20 Este 33 Este 0 1010.8 0.8 46
2019-07-21 12:00:00 30.3 22 Este 32 Este 0 1010.5 0.8 47
2019-07-21 11:00:00 29.3 20 Este 33 Norte 0 1010.2 0.8 51
2019-07-21 10:00:00 28 19 Este 33 Norte 0 1010 1 54
2019-07-21 09:00:00 26.6 19 Este 30 Este 0 1009.7 0.8 67
2019-07-21 08:00:00 25.1 17 Este 30 Este 0 1009.4 0.8 81
2019-07-21 07:00:00 23 13 Nordeste 21 Este 0 1009 0.3 90
2019-07-21 06:00:00 22.8 14 Nordeste 18 Este 0 1008.9 0 91
2019-07-21 05:00:00 22.9 14 Nordeste 18 Nordeste 0 1008.6 -0.3 90
2019-07-21 04:00:00 22.8 13 Nordeste 15 Nordeste 0 1008.7 -0.1 87
2019-07-21 03:00:00 22.6 11 Este 13 Este 0 1008.9 0.3 86
2019-07-21 02:00:00 22.7 9 Este 13 Este 0 1008.9 0.7 86
2019-07-21 01:00:00 23.2 9 Este 17 Nordeste 0 1008.8 1.2 85
2019-07-21 00:00:00 23.6 9 Nordeste 32 Este 0 1008.6 1.5 82